KJAS/JAS METAR and TAF weather

Enter ICAO airport designator
Station Type Date Time Source
KJAS METAR 2019/06/18 14:35 UTC NOAA

KJAS 181435Z AUTO 00000KT 10SM CLR 19/19 A2998 RMK AO2 P0002 T01930193


Station Type Date Time Source
KJAS Decoded METAR 2019/06/18 14:35 UTC NOAA

Jasper, Jasper County-Bell Field Airport, TX, United States (KJAS) 30-53-08N 094-02-05W
Jun 18, 2019 - 10:35 AM EDT / 2019.06.18 1435 UTC
Wind: Calm:0
Visibility: 10 mile(s):0
Sky conditions: clear
Precipitation last hour: 0.02 inches
Temperature: 66.7 F (19.3 C)
Dew Point: 66.7 F (19.3 C)
Relative Humidity: 100%
Pressure (altimeter): 29.98 in. Hg (1015 hPa)
ob: KJAS 181435Z AUTO 00000KT 10SM CLR 19/19 A2998 RMK AO2 P0002 T01930193
cycle: 14

Station Type Date Time Source
KJAS TAF UTC NOAA

Error!

Example: see airport list